sensor_id;sensor_type;location;lat;lon;timestamp;temperature;humidity
11965;DHT22;6042;41.326;19.826;2023-04-29T00:02:20;14.40;99.90
11965;DHT22;6042;41.326;19.826;2023-04-29T00:04:49;14.40;99.90
11965;DHT22;6042;41.326;19.826;2023-04-29T00:07:19;14.40;99.90
11965;DHT22;6042;41.326;19.826;2023-04-29T00:09:48;14.40;99.90
11965;DHT22;6042;41.326;19.826;2023-04-29T00:12:17;14.40;99.90
11965;DHT22;6042;41.326;19.826;2023-04-29T00:14:47;14.50;99.90
11965;DHT22;6042;41.326;19.826;2023-04-29T00:17:16;14.40;99.90
11965;DHT22;6042;41.326;19.826;2023-04-29T00:19:46;14.30;99.90
11965;DHT22;6042;41.326;19.826;2023-04-29T00:22:14;14.20;99.90
11965;DHT22;6042;41.326;19.826;2023-04-29T00:24:44;14.20;99.90
11965;DHT22;6042;41.326;19.826;2023-04-29T00:27:13;14.10;99.90
11965;DHT22;6042;41.326;19.826;2023-04-29T00:29:42;14.10;99.90
11965;DHT22;6042;41.326;19.826;2023-04-29T00:32:11;14.20;99.90
11965;DHT22;6042;41.326;19.826;2023-04-29T00:34:39;14.10;99.90
11965;DHT22;6042;41.326;19.826;2023-04-29T00:37:08;14.10;99.90
11965;DHT22;6042;41.326;19.826;2023-04-29T00:39:36;14.10;99.90
11965;DHT22;6042;41.326;19.826;2023-04-29T00:42:07;14.00;99.90
11965;DHT22;6042;41.326;19.826;2023-04-29T00:44:36;13.80;99.90
11965;DHT22;6042;41.326;19.826;2023-04-29T00:47:05;13.80;99.90
11965;DHT22;6042;41.326;19.826;2023-04-29T00:49:39;13.90;99.90
11965;DHT22;6042;41.326;19.826;2023-04-29T00:52:09;14.00;99.90
11965;DHT22;6042;41.326;19.826;2023-04-29T00:54:39;13.90;99.90
11965;DHT22;6042;41.326;19.826;2023-04-29T00:57:09;13.90;99.90
11965;DHT22;6042;41.326;19.826;2023-04-29T00:59:38;14.00;99.90
11965;DHT22;6042;41.326;19.826;2023-04-29T01:02:07;14.10;99.90
11965;DHT22;6042;41.326;19.826;2023-04-29T01:04:36;14.10;99.90
11965;DHT22;6042;41.326;19.826;2023-04-29T01:07:11;14.10;99.90
11965;DHT22;6042;41.326;19.826;2023-04-29T01:09:55;14.20;99.90
11965;DHT22;6042;41.326;19.826;2023-04-29T01:12:33;14.00;99.90
11965;DHT22;6042;41.326;19.826;2023-04-29T01:15:04;13.80;99.90
11965;DHT22;6042;41.326;19.826;2023-04-29T01:17:38;13.80;99.90
11965;DHT22;6042;41.326;19.826;2023-04-29T01:20:09;13.60;99.90
11965;DHT22;6042;41.326;19.826;2023-04-29T01:22:38;13.50;99.90
11965;DHT22;6042;41.326;19.826;2023-04-29T01:25:08;13.60;99.90
11965;DHT22;6042;41.326;19.826;2023-04-29T01:28:01;13.70;99.90
11965;DHT22;6042;41.326;19.826;2023-04-29T01:30:39;13.80;99.90
11965;DHT22;6042;41.326;19.826;2023-04-29T01:33:15;13.90;99.90
11965;DHT22;6042;41.326;19.826;2023-04-29T01:35:55;13.90;99.90
11965;DHT22;6042;41.326;19.826;2023-04-29T01:38:35;13.80;99.90
11965;DHT22;6042;41.326;19.826;2023-04-29T01:41:10;13.80;99.90
11965;DHT22;6042;41.326;19.826;2023-04-29T01:43:42;13.80;99.90
11965;DHT22;6042;41.326;19.826;2023-04-29T01:46:18;13.80;99.90
11965;DHT22;6042;41.326;19.826;2023-04-29T01:48:48;13.90;99.90
11965;DHT22;6042;41.326;19.826;2023-04-29T01:51:19;13.90;99.90
11965;DHT22;6042;41.326;19.826;2023-04-29T01:53:47;13.90;99.90
11965;DHT22;6042;41.326;19.826;2023-04-29T01:56:19;13.80;99.90
11965;DHT22;6042;41.326;19.826;2023-04-29T01:59:07;13.90;99.90
11965;DHT22;6042;41.326;19.826;2023-04-29T02:01:57;13.90;99.90
11965;DHT22;6042;41.326;19.826;2023-04-29T02:04:25;13.90;99.90
11965;DHT22;6042;41.326;19.826;2023-04-29T02:06:55;14.00;99.90
11965;DHT22;6042;41.326;19.826;2023-04-29T02:09:24;13.90;99.90
11965;DHT22;6042;41.326;19.826;2023-04-29T02:12:01;13.90;99.90
11965;DHT22;6042;41.326;19.826;2023-04-29T02:14:30;13.90;99.90
11965;DHT22;6042;41.326;19.826;2023-04-29T02:17:04;13.90;99.90
11965;DHT22;6042;41.326;19.826;2023-04-29T02:19:33;13.90;99.90
11965;DHT22;6042;41.326;19.826;2023-04-29T02:22:02;13.80;99.90
11965;DHT22;6042;41.326;19.826;2023-04-29T02:24:30;13.70;99.90
11965;DHT22;6042;41.326;19.826;2023-04-29T02:27:02;13.60;99.90
11965;DHT22;6042;41.326;19.826;2023-04-29T02:29:32;13.60;99.90
11965;DHT22;6042;41.326;19.826;2023-04-29T02:32:00;13.60;99.90
11965;DHT22;6042;41.326;19.826;2023-04-29T02:34:29;13.60;99.90
11965;DHT22;6042;41.326;19.826;2023-04-29T02:37:00;13.70;99.90
11965;DHT22;6042;41.326;19.826;2023-04-29T02:39:28;13.70;99.90
11965;DHT22;6042;41.326;19.826;2023-04-29T02:41:56;13.80;99.90
11965;DHT22;6042;41.326;19.826;2023-04-29T02:44:28;13.80;99.90
11965;DHT22;6042;41.326;19.826;2023-04-29T02:46:58;13.90;99.90
11965;DHT22;6042;41.326;19.826;2023-04-29T02:49:27;13.80;99.90
11965;DHT22;6042;41.326;19.826;2023-04-29T02:51:55;13.80;99.90
11965;DHT22;6042;41.326;19.826;2023-04-29T02:54:24;13.60;99.90
11965;DHT22;6042;41.326;19.826;2023-04-29T02:56:52;13.50;99.90
11965;DHT22;6042;41.326;19.826;2023-04-29T02:59:21;13.40;99.90
11965;DHT22;6042;41.326;19.826;2023-04-29T03:01:51;13.50;99.90
11965;DHT22;6042;41.326;19.826;2023-04-29T03:04:21;13.50;99.90
11965;DHT22;6042;41.326;19.826;2023-04-29T03:06:50;13.60;99.90
11965;DHT22;6042;41.326;19.826;2023-04-29T03:09:19;13.60;99.90
11965;DHT22;6042;41.326;19.826;2023-04-29T03:11:48;13.70;99.90
11965;DHT22;6042;41.326;19.826;2023-04-29T03:14:16;13.70;99.90
11965;DHT22;6042;41.326;19.826;2023-04-29T03:16:46;13.80;99.90
11965;DHT22;6042;41.326;19.826;2023-04-29T03:19:16;13.80;99.90
11965;DHT22;6042;41.326;19.826;2023-04-29T03:21:44;13.80;99.90
11965;DHT22;6042;41.326;19.826;2023-04-29T03:24:13;13.80;99.90
11965;DHT22;6042;41.326;19.826;2023-04-29T03:26:41;13.70;99.90
11965;DHT22;6042;41.326;19.826;2023-04-29T03:29:10;13.70;99.90
11965;DHT22;6042;41.326;19.826;2023-04-29T03:31:38;13.70;99.90
11965;DHT22;6042;41.326;19.826;2023-04-29T03:34:08;13.70;99.90
11965;DHT22;6042;41.326;19.826;2023-04-29T03:36:41;13.60;99.90
11965;DHT22;6042;41.326;19.826;2023-04-29T03:39:10;13.60;99.90
11965;DHT22;6042;41.326;19.826;2023-04-29T03:41:39;13.60;99.90
11965;DHT22;6042;41.326;19.826;2023-04-29T03:44:08;13.60;99.90
11965;DHT22;6042;41.326;19.826;2023-04-29T03:46:36;13.50;99.90
11965;DHT22;6042;41.326;19.826;2023-04-29T03:49:05;13.40;99.90
11965;DHT22;6042;41.326;19.826;2023-04-29T03:51:33;13.50;99.90
11965;DHT22;6042;41.326;19.826;2023-04-29T03:54:12;13.50;99.90
11965;DHT22;6042;41.326;19.826;2023-04-29T03:56:41;13.60;99.90
11965;DHT22;6042;41.326;19.826;2023-04-29T03:59:09;13.50;99.90
11965;DHT22;6042;41.326;19.826;2023-04-29T04:01:39;13.40;99.90
11965;DHT22;6042;41.326;19.826;2023-04-29T04:04:08;13.40;99.90
11965;DHT22;6042;41.326;19.826;2023-04-29T04:06:41;13.40;99.90
11965;DHT22;6042;41.326;19.826;2023-04-29T04:09:13;13.40;99.90
11965;DHT22;6042;41.326;19.826;2023-04-29T04:11:41;13.40;99.90
11965;DHT22;6042;41.326;19.826;2023-04-29T04:14:10;13.30;99.90
11965;DHT22;6042;41.326;19.826;2023-04-29T04:16:39;13.30;99.90
11965;DHT22;6042;41.326;19.826;2023-04-29T04:19:08;13.40;99.90
11965;DHT22;6042;41.326;19.826;2023-04-29T04:21:40;13.40;99.90
11965;DHT22;6042;41.326;19.826;2023-04-29T04:24:09;13.50;99.90
11965;DHT22;6042;41.326;19.826;2023-04-29T04:26:39;13.50;99.90
11965;DHT22;6042;41.326;19.826;2023-04-29T04:29:19;13.60;99.90
11965;DHT22;6042;41.326;19.826;2023-04-29T04:31:55;13.60;99.90
11965;DHT22;6042;41.326;19.826;2023-04-29T04:34:24;13.60;99.90
11965;DHT22;6042;41.326;19.826;2023-04-29T04:36:55;13.70;99.90
11965;DHT22;6042;41.326;19.826;2023-04-29T04:39:24;13.60;99.90
11965;DHT22;6042;41.326;19.826;2023-04-29T04:41:57;13.70;99.90
11965;DHT22;6042;41.326;19.826;2023-04-29T04:44:29;13.70;99.90
11965;DHT22;6042;41.326;19.826;2023-04-29T04:47:04;13.70;99.90
11965;DHT22;6042;41.326;19.826;2023-04-29T04:49:42;13.70;99.90
11965;DHT22;6042;41.326;19.826;2023-04-29T04:52:12;13.70;99.90
11965;DHT22;6042;41.326;19.826;2023-04-29T04:54:44;13.70;99.90
11965;DHT22;6042;41.326;19.826;2023-04-29T04:57:21;13.80;99.90
11965;DHT22;6042;41.326;19.826;2023-04-29T04:59:50;13.80;99.90
11965;DHT22;6042;41.326;19.826;2023-04-29T05:02:19;13.80;99.90
11965;DHT22;6042;41.326;19.826;2023-04-29T05:04:47;13.90;99.90
11965;DHT22;6042;41.326;19.826;2023-04-29T05:07:17;13.90;99.90
11965;DHT22;6042;41.326;19.826;2023-04-29T05:10:02;13.80;99.90
11965;DHT22;6042;41.326;19.826;2023-04-29T05:12:39;13.80;99.90
11965;DHT22;6042;41.326;19.826;2023-04-29T05:15:08;13.80;99.90
11965;DHT22;6042;41.326;19.826;2023-04-29T05:17:37;13.90;99.90
11965;DHT22;6042;41.326;19.826;2023-04-29T05:20:07;14.10;99.40
11965;DHT22;6042;41.326;19.826;2023-04-29T05:22:35;14.30;99.30
11965;DHT22;6042;41.326;19.826;2023-04-29T05:25:04;14.20;98.80
11965;DHT22;6042;41.326;19.826;2023-04-29T05:27:35;14.30;99.20
11965;DHT22;6042;41.326;19.826;2023-04-29T05:30:08;14.30;99.00
11965;DHT22;6042;41.326;19.826;2023-04-29T05:32:37;14.50;98.40
11965;DHT22;6042;41.326;19.826;2023-04-29T05:35:10;14.70;98.40
11965;DHT22;6042;41.326;19.826;2023-04-29T05:37:39;14.70;98.10
11965;DHT22;6042;41.326;19.826;2023-04-29T05:40:24;14.90;98.00
11965;DHT22;6042;41.326;19.826;2023-04-29T05:43:04;15.00;97.30
11965;DHT22;6042;41.326;19.826;2023-04-29T05:45:34;15.00;97.70
11965;DHT22;6042;41.326;19.826;2023-04-29T05:48:03;15.10;97.80
11965;DHT22;6042;41.326;19.826;2023-04-29T05:50:31;15.30;97.60
11965;DHT22;6042;41.326;19.826;2023-04-29T05:53:01;15.40;96.60
11965;DHT22;6042;41.326;19.826;2023-04-29T05:55:30;15.40;96.60
11965;DHT22;6042;41.326;19.826;2023-04-29T05:57:59;15.60;96.40
11965;DHT22;6042;41.326;19.826;2023-04-29T06:00:27;15.70;96.50
11965;DHT22;6042;41.326;19.826;2023-04-29T06:03:03;15.90;96.20
11965;DHT22;6042;41.326;19.826;2023-04-29T06:05:32;15.90;96.00
11965;DHT22;6042;41.326;19.826;2023-04-29T06:08:09;16.00;96.00
11965;DHT22;6042;41.326;19.826;2023-04-29T06:11:01;16.20;95.80
11965;DHT22;6042;41.326;19.826;2023-04-29T06:13:31;16.60;95.10
11965;DHT22;6042;41.326;19.826;2023-04-29T06:16:00;16.60;94.70
11965;DHT22;6042;41.326;19.826;2023-04-29T06:18:34;16.60;94.40
11965;DHT22;6042;41.326;19.826;2023-04-29T06:21:03;16.60;93.80
11965;DHT22;6042;41.326;19.826;2023-04-29T06:23:32;16.80;94.60
11965;DHT22;6042;41.326;19.826;2023-04-29T06:26:06;16.80;94.10
11965;DHT22;6042;41.326;19.826;2023-04-29T06:28:34;17.10;94.20
11965;DHT22;6042;41.326;19.826;2023-04-29T06:31:03;17.30;93.70
11965;DHT22;6042;41.326;19.826;2023-04-29T06:33:31;17.40;93.80
11965;DHT22;6042;41.326;19.826;2023-04-29T06:36:02;17.50;93.70
11965;DHT22;6042;41.326;19.826;2023-04-29T06:38:50;17.40;93.40
11965;DHT22;6042;41.326;19.826;2023-04-29T06:41:34;17.40;93.50
11965;DHT22;6042;41.326;19.826;2023-04-29T06:44:06;17.30;93.50
11965;DHT22;6042;41.326;19.826;2023-04-29T06:46:35;17.30;93.20
11965;DHT22;6042;41.326;19.826;2023-04-29T06:49:16;17.30;92.70
11965;DHT22;6042;41.326;19.826;2023-04-29T06:51:46;17.60;93.00
11965;DHT22;6042;41.326;19.826;2023-04-29T06:54:15;17.60;92.40
11965;DHT22;6042;41.326;19.826;2023-04-29T06:56:43;17.60;92.30
11965;DHT22;6042;41.326;19.826;2023-04-29T06:59:11;17.50;91.60
11965;DHT22;6042;41.326;19.826;2023-04-29T07:01:41;17.60;91.80
11965;DHT22;6042;41.326;19.826;2023-04-29T07:04:11;17.60;91.50
11965;DHT22;6042;41.326;19.826;2023-04-29T07:06:39;17.40;90.60
11965;DHT22;6042;41.326;19.826;2023-04-29T07:09:18;17.50;90.70
11965;DHT22;6042;41.326;19.826;2023-04-29T07:11:49;17.70;90.90
11965;DHT22;6042;41.326;19.826;2023-04-29T07:14:19;17.90;90.90
11965;DHT22;6042;41.326;19.826;2023-04-29T07:16:54;18.10;89.10
11965;DHT22;6042;41.326;19.826;2023-04-29T07:19:24;18.10;87.70
11965;DHT22;6042;41.326;19.826;2023-04-29T07:21:53;18.20;87.80
11965;DHT22;6042;41.326;19.826;2023-04-29T07:24:23;18.30;87.30
11965;DHT22;6042;41.326;19.826;2023-04-29T07:26:52;18.50;84.20
11965;DHT22;6042;41.326;19.826;2023-04-29T07:29:21;18.60;84.20
11965;DHT22;6042;41.326;19.826;2023-04-29T07:31:49;18.80;83.70
11965;DHT22;6042;41.326;19.826;2023-04-29T07:34:18;18.90;83.20
11965;DHT22;6042;41.326;19.826;2023-04-29T07:36:46;19.00;81.90
11965;DHT22;6042;41.326;19.826;2023-04-29T07:39:15;19.20;80.50
11965;DHT22;6042;41.326;19.826;2023-04-29T07:41:48;19.00;80.10
11965;DHT22;6042;41.326;19.826;2023-04-29T07:44:18;19.20;80.40
11965;DHT22;6042;41.326;19.826;2023-04-29T07:46:46;19.30;80.80
11965;DHT22;6042;41.326;19.826;2023-04-29T07:49:15;19.30;80.20
11965;DHT22;6042;41.326;19.826;2023-04-29T07:51:43;19.30;79.50
11965;DHT22;6042;41.326;19.826;2023-04-29T07:54:12;19.30;79.40
11965;DHT22;6042;41.326;19.826;2023-04-29T07:56:40;19.20;79.70
11965;DHT22;6042;41.326;19.826;2023-04-29T07:59:10;19.20;78.90
11965;DHT22;6042;41.326;19.826;2023-04-29T08:01:40;19.60;77.30
11965;DHT22;6042;41.326;19.826;2023-04-29T08:04:08;19.60;77.20
11965;DHT22;6042;41.326;19.826;2023-04-29T08:06:46;19.70;76.90
11965;DHT22;6042;41.326;19.826;2023-04-29T08:09:15;19.80;76.70
11965;DHT22;6042;41.326;19.826;2023-04-29T08:11:43;20.00;75.90
11965;DHT22;6042;41.326;19.826;2023-04-29T08:14:15;20.00;74.50
11965;DHT22;6042;41.326;19.826;2023-04-29T08:16:43;20.10;74.20
11965;DHT22;6042;41.326;19.826;2023-04-29T08:19:11;20.20;74.20
11965;DHT22;6042;41.326;19.826;2023-04-29T08:21:40;20.40;73.50
11965;DHT22;6042;41.326;19.826;2023-04-29T08:24:08;20.50;71.40
11965;DHT22;6042;41.326;19.826;2023-04-29T08:26:38;20.50;71.50
11965;DHT22;6042;41.326;19.826;2023-04-29T08:29:07;20.40;71.10
11965;DHT22;6042;41.326;19.826;2023-04-29T08:31:37;20.10;71.60
11965;DHT22;6042;41.326;19.826;2023-04-29T08:34:05;20.10;71.80
11965;DHT22;6042;41.326;19.826;2023-04-29T08:36:33;20.40;71.60
11965;DHT22;6042;41.326;19.826;2023-04-29T08:39:04;20.50;68.40
11965;DHT22;6042;41.326;19.826;2023-04-29T08:41:33;20.40;68.90
11965;DHT22;6042;41.326;19.826;2023-04-29T08:44:01;20.30;70.00
11965;DHT22;6042;41.326;19.826;2023-04-29T08:46:30;20.40;70.00
11965;DHT22;6042;41.326;19.826;2023-04-29T08:49:02;20.40;69.50
11965;DHT22;6042;41.326;19.826;2023-04-29T08:51:31;20.60;69.70
11965;DHT22;6042;41.326;19.826;2023-04-29T08:54:00;20.50;67.90
11965;DHT22;6042;41.326;19.826;2023-04-29T08:56:30;20.50;68.90
11965;DHT22;6042;41.326;19.826;2023-04-29T08:58:58;20.70;68.00
11965;DHT22;6042;41.326;19.826;2023-04-29T09:01:28;20.90;67.50
11965;DHT22;6042;41.326;19.826;2023-04-29T09:04:08;21.00;67.30
11965;DHT22;6042;41.326;19.826;2023-04-29T09:06:37;21.20;66.10
11965;DHT22;6042;41.326;19.826;2023-04-29T09:09:05;21.20;66.00
11965;DHT22;6042;41.326;19.826;2023-04-29T09:11:34;21.10;63.50
11965;DHT22;6042;41.326;19.826;2023-04-29T09:14:04;21.10;64.40
11965;DHT22;6042;41.326;19.826;2023-04-29T09:16:32;21.20;63.90
11965;DHT22;6042;41.326;19.826;2023-04-29T09:19:02;21.30;62.30
11965;DHT22;6042;41.326;19.826;2023-04-29T09:21:31;21.30;61.00
11965;DHT22;6042;41.326;19.826;2023-04-29T09:24:00;21.00;59.70
11965;DHT22;6042;41.326;19.826;2023-04-29T09:26:40;21.00;59.70
11965;DHT22;6042;41.326;19.826;2023-04-29T09:29:10;21.00;59.40
11965;DHT22;6042;41.326;19.826;2023-04-29T09:31:40;21.20;59.20
11965;DHT22;6042;41.326;19.826;2023-04-29T09:34:11;21.20;59.10
11965;DHT22;6042;41.326;19.826;2023-04-29T09:36:42;21.50;58.40
11965;DHT22;6042;41.326;19.826;2023-04-29T09:39:13;21.70;58.10
11965;DHT22;6042;41.326;19.826;2023-04-29T09:41:59;21.80;58.50
11965;DHT22;6042;41.326;19.826;2023-04-29T09:44:30;21.90;58.60
11965;DHT22;6042;41.326;19.826;2023-04-29T09:47:01;22.00;58.90
11965;DHT22;6042;41.326;19.826;2023-04-29T09:49:33;22.00;58.90
11965;DHT22;6042;41.326;19.826;2023-04-29T09:52:04;22.00;57.90
11965;DHT22;6042;41.326;19.826;2023-04-29T09:54:34;22.00;58.30
11965;DHT22;6042;41.326;19.826;2023-04-29T09:57:05;21.90;59.30
11965;DHT22;6042;41.326;19.826;2023-04-29T09:59:35;21.80;57.20
11965;DHT22;6042;41.326;19.826;2023-04-29T10:02:07;21.80;56.80
11965;DHT22;6042;41.326;19.826;2023-04-29T10:04:40;21.80;59.40
11965;DHT22;6042;41.326;19.826;2023-04-29T10:07:13;21.90;59.20
11965;DHT22;6042;41.326;19.826;2023-04-29T10:09:43;21.90;58.80
11965;DHT22;6042;41.326;19.826;2023-04-29T10:12:15;22.10;58.70
11965;DHT22;6042;41.326;19.826;2023-04-29T10:14:47;22.00;59.00
11965;DHT22;6042;41.326;19.826;2023-04-29T10:17:22;22.20;58.70
11965;DHT22;6042;41.326;19.826;2023-04-29T10:19:57;22.50;58.30
11965;DHT22;6042;41.326;19.826;2023-04-29T10:22:33;22.60;58.70
11965;DHT22;6042;41.326;19.826;2023-04-29T10:25:05;22.60;58.50
11965;DHT22;6042;41.326;19.826;2023-04-29T10:27:36;22.60;59.30
11965;DHT22;6042;41.326;19.826;2023-04-29T10:30:07;22.80;59.40
11965;DHT22;6042;41.326;19.826;2023-04-29T10:32:39;23.20;59.10
11965;DHT22;6042;41.326;19.826;2023-04-29T10:35:20;23.30;59.70
11965;DHT22;6042;41.326;19.826;2023-04-29T10:37:52;23.40;59.60
11965;DHT22;6042;41.326;19.826;2023-04-29T10:40:24;23.50;60.40
11965;DHT22;6042;41.326;19.826;2023-04-29T10:42:55;23.40;60.00
11965;DHT22;6042;41.326;19.826;2023-04-29T10:45:24;22.90;60.20
11965;DHT22;6042;41.326;19.826;2023-04-29T10:48:15;22.80;60.80
11965;DHT22;6042;41.326;19.826;2023-04-29T10:51:02;23.00;59.90
11965;DHT22;6042;41.326;19.826;2023-04-29T10:53:30;22.80;60.10
11965;DHT22;6042;41.326;19.826;2023-04-29T10:56:03;22.80;59.80
11965;DHT22;6042;41.326;19.826;2023-04-29T10:58:37;22.60;60.00
11965;DHT22;6042;41.326;19.826;2023-04-29T11:01:06;22.90;61.10
11965;DHT22;6042;41.326;19.826;2023-04-29T11:03:51;23.20;59.90
11965;DHT22;6042;41.326;19.826;2023-04-29T11:06:42;23.10;60.70
11965;DHT22;6042;41.326;19.826;2023-04-29T11:09:13;22.80;61.20
11965;DHT22;6042;41.326;19.826;2023-04-29T11:11:43;22.50;62.10
11965;DHT22;6042;41.326;19.826;2023-04-29T11:14:12;22.60;61.20
11965;DHT22;6042;41.326;19.826;2023-04-29T11:16:48;22.50;61.60
11965;DHT22;6042;41.326;19.826;2023-04-29T11:19:18;22.60;61.80
11965;DHT22;6042;41.326;19.826;2023-04-29T11:21:48;22.80;61.40
11965;DHT22;6042;41.326;19.826;2023-04-29T11:24:30;23.00;61.30
11965;DHT22;6042;41.326;19.826;2023-04-29T11:27:00;23.00;61.80
11965;DHT22;6042;41.326;19.826;2023-04-29T11:29:30;23.10;61.00
11965;DHT22;6042;41.326;19.826;2023-04-29T11:32:00;23.20;61.30
11965;DHT22;6042;41.326;19.826;2023-04-29T11:34:29;23.40;61.10
11965;DHT22;6042;41.326;19.826;2023-04-29T11:36:59;23.20;61.60
11965;DHT22;6042;41.326;19.826;2023-04-29T11:39:27;23.40;61.10
11965;DHT22;6042;41.326;19.826;2023-04-29T11:42:02;23.40;61.20
11965;DHT22;6042;41.326;19.826;2023-04-29T11:44:33;23.10;61.70
11965;DHT22;6042;41.326;19.826;2023-04-29T11:47:02;23.20;61.50
11965;DHT22;6042;41.326;19.826;2023-04-29T11:49:30;23.10;62.50
11965;DHT22;6042;41.326;19.826;2023-04-29T11:52:01;23.50;64.70
11965;DHT22;6042;41.326;19.826;2023-04-29T11:54:30;23.40;67.20
11965;DHT22;6042;41.326;19.826;2023-04-29T11:56:58;23.50;68.10
11965;DHT22;6042;41.326;19.826;2023-04-29T11:59:31;23.50;68.00
11965;DHT22;6042;41.326;19.826;2023-04-29T12:01:59;23.50;67.00
11965;DHT22;6042;41.326;19.826;2023-04-29T12:04:28;23.50;67.00
11965;DHT22;6042;41.326;19.826;2023-04-29T12:06:57;23.30;66.30
11965;DHT22;6042;41.326;19.826;2023-04-29T12:09:27;23.40;64.80
11965;DHT22;6042;41.326;19.826;2023-04-29T12:11:55;23.00;65.60
11965;DHT22;6042;41.326;19.826;2023-04-29T12:14:23;22.80;65.60
11965;DHT22;6042;41.326;19.826;2023-04-29T12:16:52;22.80;65.60
11965;DHT22;6042;41.326;19.826;2023-04-29T12:19:21;22.70;66.50
11965;DHT22;6042;41.326;19.826;2023-04-29T12:21:49;22.50;68.30
11965;DHT22;6042;41.326;19.826;2023-04-29T12:24:19;22.30;70.60
11965;DHT22;6042;41.326;19.826;2023-04-29T12:26:50;22.20;72.20
11965;DHT22;6042;41.326;19.826;2023-04-29T12:29:20;22.10;73.60
11965;DHT22;6042;41.326;19.826;2023-04-29T12:31:49;22.00;75.60
11965;DHT22;6042;41.326;19.826;2023-04-29T12:34:24;22.10;75.90
11965;DHT22;6042;41.326;19.826;2023-04-29T12:36:54;22.20;75.60
11965;DHT22;6042;41.326;19.826;2023-04-29T12:39:24;21.80;76.70
11965;DHT22;6042;41.326;19.826;2023-04-29T12:41:57;21.80;75.00
11965;DHT22;6042;41.326;19.826;2023-04-29T12:44:33;21.50;77.10
11965;DHT22;6042;41.326;19.826;2023-04-29T12:47:07;21.50;77.30
11965;DHT22;6042;41.326;19.826;2023-04-29T12:49:36;21.50;77.80
11965;DHT22;6042;41.326;19.826;2023-04-29T12:52:04;21.30;78.90
11965;DHT22;6042;41.326;19.826;2023-04-29T12:54:35;21.40;76.90
11965;DHT22;6042;41.326;19.826;2023-04-29T12:57:05;21.10;76.70
11965;DHT22;6042;41.326;19.826;2023-04-29T12:59:34;20.90;77.60
11965;DHT22;6042;41.326;19.826;2023-04-29T13:02:03;20.70;78.90
11965;DHT22;6042;41.326;19.826;2023-04-29T13:04:31;20.50;79.40
11965;DHT22;6042;41.326;19.826;2023-04-29T13:07:00;20.50;79.00
11965;DHT22;6042;41.326;19.826;2023-04-29T13:09:30;20.40;79.20
11965;DHT22;6042;41.326;19.826;2023-04-29T13:11:58;20.30;79.40
11965;DHT22;6042;41.326;19.826;2023-04-29T13:14:29;20.20;79.70
11965;DHT22;6042;41.326;19.826;2023-04-29T13:16:58;20.40;80.70
11965;DHT22;6042;41.326;19.826;2023-04-29T13:19:27;20.40;82.70
11965;DHT22;6042;41.326;19.826;2023-04-29T13:22:15;20.10;84.50
11965;DHT22;6042;41.326;19.826;2023-04-29T13:24:43;19.80;84.10
11965;DHT22;6042;41.326;19.826;2023-04-29T13:27:12;19.60;84.70
11965;DHT22;6042;41.326;19.826;2023-04-29T13:29:42;19.50;85.60
11965;DHT22;6042;41.326;19.826;2023-04-29T13:32:10;19.40;88.10
11965;DHT22;6042;41.326;19.826;2023-04-29T13:34:39;19.30;88.40
11965;DHT22;6042;41.326;19.826;2023-04-29T13:37:09;19.20;87.40
11965;DHT22;6042;41.326;19.826;2023-04-29T13:39:38;19.00;88.40
11965;DHT22;6042;41.326;19.826;2023-04-29T13:42:10;18.90;90.00
11965;DHT22;6042;41.326;19.826;2023-04-29T13:44:43;18.80;90.30
11965;DHT22;6042;41.326;19.826;2023-04-29T13:47:19;18.80;90.60
11965;DHT22;6042;41.326;19.826;2023-04-29T13:49:52;18.70;89.00
11965;DHT22;6042;41.326;19.826;2023-04-29T13:52:24;18.60;89.00
11965;DHT22;6042;41.326;19.826;2023-04-29T13:55:14;18.50;87.70
11965;DHT22;6042;41.326;19.826;2023-04-29T13:58:03;18.40;87.50
11965;DHT22;6042;41.326;19.826;2023-04-29T14:00:35;18.20;88.30
11965;DHT22;6042;41.326;19.826;2023-04-29T14:03:26;18.20;89.90
11965;DHT22;6042;41.326;19.826;2023-04-29T14:05:56;17.90;90.30
11965;DHT22;6042;41.326;19.826;2023-04-29T14:08:24;17.70;91.40
11965;DHT22;6042;41.326;19.826;2023-04-29T14:10:52;17.50;91.10
11965;DHT22;6042;41.326;19.826;2023-04-29T14:13:21;17.20;91.80
11965;DHT22;6042;41.326;19.826;2023-04-29T14:15:50;17.10;93.80
11965;DHT22;6042;41.326;19.826;2023-04-29T14:18:20;17.10;93.90
11965;DHT22;6042;41.326;19.826;2023-04-29T14:20:48;17.20;93.60
11965;DHT22;6042;41.326;19.826;2023-04-29T14:23:17;17.30;94.50
11965;DHT22;6042;41.326;19.826;2023-04-29T14:25:45;17.40;94.80
11965;DHT22;6042;41.326;19.826;2023-04-29T14:28:13;17.50;95.10
11965;DHT22;6042;41.326;19.826;2023-04-29T14:30:42;17.70;96.20
11965;DHT22;6042;41.326;19.826;2023-04-29T14:33:14;17.90;96.70
11965;DHT22;6042;41.326;19.826;2023-04-29T14:35:42;17.90;96.90
11965;DHT22;6042;41.326;19.826;2023-04-29T14:38:11;18.00;98.20
11965;DHT22;6042;41.326;19.826;2023-04-29T14:40:39;18.10;98.60
11965;DHT22;6042;41.326;19.826;2023-04-29T14:43:08;18.00;98.20
11965;DHT22;6042;41.326;19.826;2023-04-29T14:45:36;17.90;98.80
11965;DHT22;6042;41.326;19.826;2023-04-29T14:48:04;17.70;99.90
11965;DHT22;6042;41.326;19.826;2023-04-29T14:50:35;17.70;99.90
11965;DHT22;6042;41.326;19.826;2023-04-29T14:53:03;17.70;99.90
11965;DHT22;6042;41.326;19.826;2023-04-29T14:55:33;17.60;99.90
11965;DHT22;6042;41.326;19.826;2023-04-29T14:58:01;17.50;99.90
11965;DHT22;6042;41.326;19.826;2023-04-29T15:00:31;17.40;99.90
11965;DHT22;6042;41.326;19.826;2023-04-29T15:02:59;17.20;99.90
11965;DHT22;6042;41.326;19.826;2023-04-29T15:05:30;17.10;99.90
11965;DHT22;6042;41.326;19.826;2023-04-29T15:07:59;17.10;99.90
11965;DHT22;6042;41.326;19.826;2023-04-29T15:10:29;17.00;99.90
11965;DHT22;6042;41.326;19.826;2023-04-29T15:12:57;17.00;99.90
11965;DHT22;6042;41.326;19.826;2023-04-29T15:15:27;17.00;99.90
11965;DHT22;6042;41.326;19.826;2023-04-29T15:17:55;17.00;99.90
11965;DHT22;6042;41.326;19.826;2023-04-29T15:20:23;17.10;99.90
11965;DHT22;6042;41.326;19.826;2023-04-29T15:22:52;17.20;99.90
11965;DHT22;6042;41.326;19.826;2023-04-29T15:25:23;17.30;99.90
11965;DHT22;6042;41.326;19.826;2023-04-29T15:27:53;17.30;99.90
11965;DHT22;6042;41.326;19.826;2023-04-29T15:30:22;17.30;99.90
11965;DHT22;6042;41.326;19.826;2023-04-29T15:32:50;17.40;99.90
11965;DHT22;6042;41.326;19.826;2023-04-29T15:35:19;17.50;99.90
11965;DHT22;6042;41.326;19.826;2023-04-29T15:37:47;17.60;99.90
11965;DHT22;6042;41.326;19.826;2023-04-29T15:40:16;17.70;99.90
11965;DHT22;6042;41.326;19.826;2023-04-29T15:42:47;17.70;99.90
11965;DHT22;6042;41.326;19.826;2023-04-29T15:45:15;17.80;99.90
11965;DHT22;6042;41.326;19.826;2023-04-29T15:47:44;17.80;99.90
11965;DHT22;6042;41.326;19.826;2023-04-29T15:50:13;17.60;99.90
11965;DHT22;6042;41.326;19.826;2023-04-29T15:52:42;17.50;99.90
11965;DHT22;6042;41.326;19.826;2023-04-29T15:55:10;17.60;99.90